Pagina principale
METAR-TAF:

METAR-TAF

Aeroporti :

Aeroporto di Antananarivo-Ivato

Antananarivo, Madagascar

latitudine: 18-48S, longitudine: 047-29E, altezza: 1279 m

Osservazione

Il bollettino è stato emesso 39 minuti fa, alle 20:30 UTC
Vento 4 kt da est
Temperature 14°C
Umidità 94%
Pressione 1023 hPa
Visibilità 10 km o più
Poco nuvoloso ad un'altezza di 1700 ft

METAR: FMMI 252030Z 10004KT 9999 FEW017 14/13 Q1023 NOSIG

Ora: 00:09 (21:09 UTC)

Previsione

Il bollettino è stato emesso 4 ore e 9 minuti fa, alle 17:00 UTC
Previsione valida dal 25 alle 18 UTC al 26 alle 24 UTC
Vento 9 kt da sud-est
Visibilità 10 km o più
Poco nuvoloso ad un'altezza di 1700 ft
Nubi sparse ad un'altezza di 2000 ft

TAF: FMMI 251700Z 2518/2624 13009KT 9999 FEW017 SCT020

Osservazioni e previsioni meteorologiche di più di 4000 aeroporti (messaggi METAR e TAF).

Le stazioni disponibili sono rappresentate dai dischi gialli e rossi sulla carta.

Puntare il mouse per vedere il nome della stazione.

Clicca sopra per visualizzare le osservazioni e previsioni meteorologiche.

Per cambiare la mappa : fare clic sui pulsanti verdi con una croce nera per ingrandire, il pulsante verde con un trattino per diminuire, o sulla freccia verde per le mappe adiacenti.


METAR-TAF: